Time;durP1;ratioP1;P1;durP2;ratioP2;P2;SDS_P1;SDS_P2;PMS_P1;PMS_P2;Temp;Humidity;BMP_temperature;BMP_pressure;BME280_temperature;BME280_humidity;BME280_pressure;Samples;Min_cycle;Max_cycle;Signal;HPM_P1;HPM_P2
2021/01/28 00:00:30;;;;;;;7.68;3.85;;;22.40;45.10;;;;;;5052135;28;45394;-63
2021/01/28 00:02:56;;;;;;;5.60;3.33;;;22.40;45.10;;;;;;5058160;28;45434;-64
2021/01/28 00:05:22;;;;;;;7.82;3.78;;;22.40;45.10;;;;;;5044767;28;45553;-63
2021/01/28 00:07:48;;;;;;;8.88;3.53;;;22.40;45.10;;;;;;5044159;28;46244;-63
2021/01/28 00:10:14;;;;;;;5.88;3.20;;;22.40;45.00;;;;;;5065131;28;45374;-63
2021/01/28 00:12:40;;;;;;;7.13;3.30;;;22.40;45.10;;;;;;5064571;28;45390;-63
2021/01/28 00:15:06;;;;;;;6.28;3.63;;;22.40;45.10;;;;;;5065084;28;45492;-63
2021/01/28 00:17:32;;;;;;;6.93;3.80;;;22.40;45.10;;;;;;5063914;28;46555;-63
2021/01/28 00:19:58;;;;;;;6.05;3.30;;;22.30;45.00;;;;;;5048175;28;45563;-63
2021/01/28 00:22:23;;;;;;;5.75;3.13;;;22.30;45.00;;;;;;5048168;28;45333;-63
2021/01/28 00:24:49;;;;;;;6.53;3.75;;;22.30;45.10;;;;;;5049300;28;45505;-64
2021/01/28 00:27:15;;;;;;;5.32;3.40;;;22.30;45.10;;;;;;5065699;28;45336;-63
2021/01/28 00:29:40;;;;;;;6.10;3.17;;;22.30;45.10;;;;;;5065664;28;45213;-65
2021/01/28 00:32:06;;;;;;;4.93;3.25;;;22.20;45.20;;;;;;5065974;28;45363;-64
2021/01/28 00:34:32;;;;;;;5.38;2.97;;;22.30;45.10;;;;;;5066383;28;45322;-63
2021/01/28 00:36:58;;;;;;;5.97;3.35;;;22.20;45.10;;;;;;5065472;28;45318;-63
2021/01/28 00:39:24;;;;;;;6.30;2.80;;;22.20;45.20;;;;;;5065770;28;45359;-63
2021/01/28 00:41:49;;;;;;;5.07;3.28;;;22.20;45.20;;;;;;5065715;28;45325;-63
2021/01/28 00:44:15;;;;;;;6.60;4.13;;;22.20;45.20;;;;;;5066186;28;45298;-64
2021/01/28 00:46:41;;;;;;;6.13;3.13;;;22.20;45.20;;;;;;5065636;28;45354;-63
2021/01/28 00:49:06;;;;;;;5.10;3.00;;;22.10;45.20;;;;;;5065603;28;45342;-64
2021/01/28 00:51:32;;;;;;;5.47;3.28;;;22.10;45.20;;;;;;5066274;28;45376;-63
2021/01/28 00:53:58;;;;;;;6.50;3.30;;;22.10;45.20;;;;;;5052997;28;45291;-62
2021/01/28 00:56:24;;;;;;;6.03;3.35;;;22.10;45.20;;;;;;5051940;28;46031;-63
2021/01/28 00:58:50;;;;;;;5.07;2.85;;;22.10;45.20;;;;;;5069020;28;45351;-63
2021/01/28 01:01:16;;;;;;;5.68;3.35;;;22.00;45.20;;;;;;5068475;28;45291;-64
2021/01/28 01:03:42;;;;;;;5.45;3.05;;;22.10;45.20;;;;;;5069208;28;45276;-64
2021/01/28 01:06:07;;;;;;;4.75;2.92;;;22.00;45.20;;;;;;5068888;28;45363;-64
2021/01/28 01:08:33;;;;;;;4.88;3.28;;;22.00;45.20;;;;;;5068199;28;45415;-64
2021/01/28 01:11:01;;;;;;;5.32;3.15;;;22.00;45.20;;;;;;5069064;28;45324;-63
2021/01/28 01:13:29;;;;;;;5.43;3.35;;;22.00;45.10;;;;;;5070209;28;45575;-65
2021/01/28 01:15:55;;;;;;;4.45;2.67;;;22.00;45.20;;;;;;5068118;28;46269;-63
2021/01/28 01:18:24;;;;;;;6.32;3.63;;;22.00;45.20;;;;;;5068655;28;45453;-63
2021/01/28 01:20:50;;;;;;;5.30;2.65;;;22.00;45.10;;;;;;5069905;28;45436;-63
2021/01/28 01:23:15;;;;;;;5.45;3.42;;;22.00;45.20;;;;;;5052422;28;45481;-63
2021/01/28 01:25:41;;;;;;;5.43;2.85;;;21.90;45.10;;;;;;5051631;28;46563;-62
2021/01/28 01:28:07;;;;;;;4.68;2.78;;;21.90;45.10;;;;;;5051762;28;45286;-62
2021/01/28 01:30:33;;;;;;;5.63;3.33;;;21.90;45.10;;;;;;5051985;28;45364;-63
2021/01/28 01:32:58;;;;;;;6.22;3.20;;;21.90;45.10;;;;;;5052072;28;45632;-62
2021/01/28 01:35:24;;;;;;;6.55;3.67;;;21.90;45.10;;;;;;5051767;28;45392;-63
2021/01/28 01:37:51;;;;;;;6.95;3.40;;;21.90;45.00;;;;;;5051623;28;45325;-62
2021/01/28 01:40:19;;;;;;;7.22;3.35;;;21.90;45.00;;;;;;5051769;28;45378;-62
2021/01/28 01:42:48;;;;;;;5.65;2.75;;;21.90;45.00;;;;;;5070165;28;45551;-62
2021/01/28 01:45:15;;;;;;;6.07;3.10;;;21.90;45.00;;;;;;5051413;28;46263;-64
2021/01/28 01:47:44;;;;;;;6.72;3.42;;;21.90;45.00;;;;;;5068130;28;45299;-63
2021/01/28 01:50:41;;;;;;;7.32;3.83;;;21.90;45.00;;;;;;5069556;28;45341;-62
2021/01/28 01:53:12;;;;;;;6.50;3.60;;;21.90;44.90;;;;;;5067861;28;45512;-63
2021/01/28 01:55:37;;;;;;;6.15;3.42;;;21.80;45.00;;;;;;5051212;28;45323;-62
2021/01/28 01:58:04;;;;;;;6.28;3.33;;;21.80;45.00;;;;;;5068041;28;45358;-63
2021/01/28 02:00:30;;;;;;;6.75;3.08;;;21.80;44.90;;;;;;5067313;28;45466;-63
2021/01/28 02:03:00;;;;;;;6.68;3.20;;;21.80;44.90;;;;;;5068334;28;45417;-62
2021/01/28 02:05:28;;;;;;;5.30;2.92;;;21.80;44.90;;;;;;5067279;28;45435;-63
2021/01/28 02:07:54;;;;;;;7.43;3.50;;;21.80;44.90;;;;;;5067949;28;45343;-64
2021/01/28 02:10:20;;;;;;;6.35;3.58;;;21.80;44.80;;;;;;5067615;28;45319;-61
2021/01/28 02:12:45;;;;;;;6.22;3.22;;;21.80;44.80;;;;;;5067776;28;45628;-63
2021/01/28 02:15:11;;;;;;;5.57;3.30;;;21.80;44.80;;;;;;5067124;28;46631;-63
2021/01/28 02:17:38;;;;;;;6.28;3.67;;;21.80;44.80;;;;;;5058958;28;45211;-62
2021/01/28 02:20:28;;;;;;;5.45;3.45;;;21.80;44.70;;;;;;5030832;28;45206;-62
2021/01/28 02:23:02;;;;;;;6.40;4.13;;;21.90;44.60;;;;;;5047961;28;45505;-62
2021/01/28 02:25:33;;;;;;;6.32;3.50;;;21.90;44.50;;;;;;5048846;28;45494;-62
2021/01/28 02:28:00;;;;;;;5.47;3.65;;;21.90;44.40;;;;;;5025500;28;45343;-61
2021/01/28 02:30:27;;;;;;;5.43;3.35;;;22.00;44.30;;;;;;5009620;28;45349;-62
2021/01/28 02:32:53;;;;;;;6.13;3.42;;;22.00;44.30;;;;;;5009874;28;45308;-62
2021/01/28 02:35:20;;;;;;;6.20;4.13;;;22.00;44.20;;;;;;5009586;28;45468;-62
2021/01/28 02:37:47;;;;;;;5.45;3.65;;;22.00;44.00;;;;;;5025876;28;45346;-62
2021/01/28 02:40:13;;;;;;;6.13;3.75;;;22.00;43.90;;;;;;5009807;28;45325;-64
2021/01/28 02:42:39;;;;;;;5.80;3.60;;;22.00;43.60;;;;;;5009871;28;45596;-64
2021/01/28 02:45:05;;;;;;;5.97;3.78;;;22.00;43.50;;;;;;5009182;28;45335;-62
2021/01/28 02:47:31;;;;;;;6.25;3.42;;;22.00;43.40;;;;;;5009556;28;45692;-62
2021/01/28 02:49:57;;;;;;;5.30;3.40;;;22.00;43.40;;;;;;5009703;28;45463;-63
2021/01/28 02:52:22;;;;;;;5.30;3.63;;;22.00;43.30;;;;;;5019455;28;45571;-62
2021/01/28 02:54:50;;;;;;;5.65;3.60;;;22.00;43.30;;;;;;5012551;28;45519;-62
2021/01/28 02:57:16;;;;;;;5.25;3.13;;;22.00;43.40;;;;;;5028595;28;45237;-62
2021/01/28 02:59:42;;;;;;;6.40;3.50;;;22.00;43.60;;;;;;5041645;28;45378;-62
2021/01/28 03:02:12;;;;;;;4.68;2.92;;;22.00;43.60;;;;;;5067488;28;45601;-63
2021/01/28 03:04:38;;;;;;;5.68;3.28;;;22.10;43.80;;;;;;5066538;28;46500;-63
2021/01/28 03:07:05;;;;;;;6.05;3.53;;;22.20;43.90;;;;;;5067007;28;45373;-63
2021/01/28 03:09:31;;;;;;;5.45;3.22;;;22.10;43.70;;;;;;5066651;28;45417;-63
2021/01/28 03:11:56;;;;;;;6.35;3.65;;;22.10;43.80;;;;;;5067102;28;45689;-63
2021/01/28 03:14:22;;;;;;;4.97;3.25;;;22.20;43.70;;;;;;5066061;28;45284;-63
2021/01/28 03:16:48;;;;;;;6.15;3.53;;;22.20;43.60;;;;;;5064918;28;46374;-63
2021/01/28 03:19:14;;;;;;;5.85;3.45;;;22.30;43.70;;;;;;5046794;28;45240;-63
2021/01/28 03:21:39;;;;;;;5.80;3.53;;;22.30;43.70;;;;;;5058563;28;45506;-64
2021/01/28 03:24:06;;;;;;;4.60;2.78;;;22.30;43.70;;;;;;5049637;28;45653;-63
2021/01/28 03:26:31;;;;;;;5.10;3.42;;;22.30;43.70;;;;;;5049697;28;45448;-63
2021/01/28 03:28:57;;;;;;;5.95;3.58;;;22.30;43.60;;;;;;5066544;28;45346;-62
2021/01/28 03:31:23;;;;;;;6.18;3.65;;;22.30;43.50;;;;;;5067165;28;45519;-63
2021/01/28 03:33:49;;;;;;;4.53;3.05;;;22.40;43.50;;;;;;5065870;28;46306;-63
2021/01/28 03:36:14;;;;;;;5.57;3.30;;;22.30;43.50;;;;;;5066495;28;45412;-64
2021/01/28 03:38:40;;;;;;;4.68;3.00;;;22.40;43.50;;;;;;5066713;28;45320;-64
2021/01/28 03:41:06;;;;;;;5.72;3.30;;;22.40;43.50;;;;;;5066830;28;45359;-63
2021/01/28 03:43:31;;;;;;;5.18;3.28;;;22.40;43.40;;;;;;5066325;28;46411;-63
2021/01/28 03:45:57;;;;;;;4.72;2.53;;;22.40;43.40;;;;;;5066457;28;45274;-63
2021/01/28 03:48:23;;;;;;;4.88;3.40;;;22.50;43.40;;;;;;5066185;28;45240;-63
2021/01/28 03:50:49;;;;;;;7.13;3.10;;;22.50;43.30;;;;;;5066951;28;45295;-63
2021/01/28 03:53:14;;;;;;;5.18;3.20;;;22.50;43.30;;;;;;5065056;28;46292;-63
2021/01/28 03:55:40;;;;;;;4.55;2.78;;;22.60;43.30;;;;;;5049148;28;45296;-63
2021/01/28 03:58:06;;;;;;;4.80;3.15;;;22.60;43.20;;;;;;5066188;28;45255;-63
2021/01/28 04:00:33;;;;;;;5.20;3.05;;;22.60;43.20;;;;;;5063145;28;45681;-63
2021/01/28 04:02:59;;;;;;;4.97;3.00;;;22.70;43.20;;;;;;5057720;28;45432;-63
2021/01/28 04:05:26;;;;;;;6.15;2.80;;;22.70;43.10;;;;;;5044627;28;45387;-63
2021/01/28 04:07:52;;;;;;;4.13;2.50;;;22.80;43.10;;;;;;5065830;28;45239;-63
2021/01/28 04:10:20;;;;;;;4.85;3.20;;;22.80;43.00;;;;;;5066634;28;45552;-63
2021/01/28 04:12:46;;;;;;;4.78;2.80;;;22.80;42.90;;;;;;5065678;28;46271;-63
2021/01/28 04:15:12;;;;;;;5.32;3.10;;;22.90;42.90;;;;;;5065343;28;45509;-63
2021/01/28 04:17:38;;;;;;;5.25;2.88;;;22.90;42.90;;;;;;5057695;28;45493;-63
2021/01/28 04:20:05;;;;;;;4.65;2.50;;;22.90;42.90;;;;;;5035100;28;45991;-63
2021/01/28 04:22:31;;;;;;;5.03;3.05;;;22.90;42.90;;;;;;5053192;28;46125;-63
2021/01/28 04:24:56;;;;;;;5.90;3.10;;;22.90;42.90;;;;;;5038769;28;45504;-63
2021/01/28 04:27:22;;;;;;;5.32;3.30;;;22.90;42.80;;;;;;5050817;28;45224;-63
2021/01/28 04:29:48;;;;;;;5.32;2.92;;;22.90;42.80;;;;;;5052046;28;45627;-63
2021/01/28 04:32:13;;;;;;;4.72;2.97;;;22.90;42.70;;;;;;5068318;28;45447;-63
2021/01/28 04:34:39;;;;;;;5.45;3.22;;;22.90;42.70;;;;;;5052042;28;45351;-63
2021/01/28 04:37:05;;;;;;;5.57;3.47;;;22.90;42.70;;;;;;5047717;28;45493;-63
2021/01/28 04:39:30;;;;;;;4.82;2.85;;;22.90;42.70;;;;;;5050341;28;45315;-63
2021/01/28 04:41:56;;;;;;;5.15;3.28;;;22.90;42.60;;;;;;5038049;28;46354;-63
2021/01/28 04:44:22;;;;;;;4.80;2.90;;;22.90;42.60;;;;;;5068875;28;45309;-62
2021/01/28 04:46:50;;;;;;;6.18;3.17;;;22.90;42.60;;;;;;5068920;28;45479;-62
2021/01/28 04:49:17;;;;;;;5.10;2.65;;;22.90;42.50;;;;;;5069633;28;45388;-62
2021/01/28 04:51:44;;;;;;;5.05;2.78;;;23.00;42.50;;;;;;5059693;28;46378;-62
2021/01/28 04:54:22;;;;;;;5.05;2.88;;;23.00;42.50;;;;;;5050208;28;45472;-62
2021/01/28 04:56:48;;;;;;;4.93;2.92;;;23.10;42.50;;;;;;5046529;28;45397;-62
2021/01/28 04:59:33;;;;;;;5.28;3.60;;;23.00;42.40;;;;;;5051519;28;45348;-62
2021/01/28 05:02:02;;;;;;;4.65;2.80;;;23.00;42.20;;;;;;5050465;28;45457;-63
2021/01/28 05:04:37;;;;;;;5.10;3.42;;;23.00;42.40;;;;;;5050733;28;45366;-63
2021/01/28 05:07:02;;;;;;;;;;;23.00;42.30;;;;;;5051471;28;45295;-63
2021/01/28 05:09:28;;;;;;;5.65;3.42;;;22.90;42.20;;;;;;5050883;28;45597;-62
2021/01/28 05:11:56;;;;;;;5.05;2.95;;;23.00;42.40;;;;;;5034009;28;45455;-64
2021/01/28 05:14:30;;;;;;;5.03;3.17;;;23.00;42.40;;;;;;5065230;28;45487;-63
2021/01/28 05:16:57;;;;;;;6.20;2.73;;;23.00;42.20;;;;;;5066844;28;45415;-61
2021/01/28 05:19:35;;;;;;;4.97;3.60;;;23.00;42.20;;;;;;5050955;28;45503;-62
2021/01/28 05:22:15;;;;;;;4.93;3.13;;;23.10;42.10;;;;;;5067633;28;46138;-63
2021/01/28 05:24:48;;;;;;;5.25;2.92;;;23.10;42.20;;;;;;5066759;28;45401;-62
2021/01/28 05:27:23;;;;;;;4.53;2.85;;;23.10;42.20;;;;;;5068328;28;45414;-62
2021/01/28 05:29:49;;;;;;;6.22;2.90;;;23.10;42.20;;;;;;5066059;28;45547;-62
2021/01/28 05:32:34;;;;;;;6.88;3.80;;;23.10;42.20;;;;;;5047244;28;46458;-61
2021/01/28 05:35:15;;;;;;;5.65;3.55;;;23.10;42.10;;;;;;5067844;28;45460;-61
2021/01/28 05:37:41;;;;;;;5.28;3.70;;;23.10;42.10;;;;;;5067319;28;45441;-62
2021/01/28 05:40:22;;;;;;;5.20;3.15;;;23.10;42.20;;;;;;5048112;28;45420;-62
2021/01/28 05:42:47;;;;;;;5.63;3.40;;;23.20;42.10;;;;;;5064357;28;45515;-63
2021/01/28 05:45:23;;;;;;;5.68;3.40;;;23.20;42.10;;;;;;5063514;28;45470;-63
2021/01/28 05:47:50;;;;;;;5.28;2.95;;;23.20;42.00;;;;;;5066076;28;45409;-62
2021/01/28 05:50:23;;;;;;;5.32;3.53;;;23.20;42.10;;;;;;5050485;28;45649;-62
2021/01/28 05:52:49;;;;;;;6.55;3.50;;;23.20;42.00;;;;;;5064711;28;46302;-62
2021/01/28 05:55:22;;;;;;;6.30;3.60;;;23.30;42.00;;;;;;5049665;28;45491;-62
2021/01/28 05:58:16;;;;;;;5.40;3.58;;;23.40;41.90;;;;;;5058812;28;45334;-62
2021/01/28 06:01:07;;;;;;;6.72;4.07;;;23.40;41.80;;;;;;5066675;28;45434;-63
2021/01/28 06:03:47;;;;;;;6.35;3.80;;;23.40;41.90;;;;;;5064767;28;46221;-63
2021/01/28 06:06:18;;;;;;;5.57;3.13;;;23.50;41.80;;;;;;5064491;28;45389;-61
2021/01/28 06:09:08;;;;;;;5.32;3.22;;;23.40;41.80;;;;;;5066558;28;45366;-62
2021/01/28 06:11:55;;;;;;;5.90;3.70;;;23.50;41.70;;;;;;5066626;28;45546;-63
2021/01/28 06:14:54;;;;;;;7.32;3.75;;;23.50;41.60;;;;;;5066596;28;45377;-63
2021/01/28 06:17:38;;;;;;;7.13;4.07;;;23.50;41.60;;;;;;5047656;28;45324;-62
2021/01/28 06:20:31;;;;;;;7.25;3.95;;;23.50;41.80;;;;;;5049109;28;45364;-63
2021/01/28 06:23:05;;;;;;;5.57;3.50;;;23.50;41.70;;;;;;5049343;28;45404;-64
2021/01/28 06:25:49;;;;;;;6.40;3.90;;;23.50;41.80;;;;;;5048683;28;46213;-62
2021/01/28 06:28:29;;;;;;;5.57;3.50;;;23.50;41.70;;;;;;5049091;28;45383;-63
2021/01/28 06:31:42;;;;;;;6.30;4.28;;;23.60;41.70;;;;;;5047519;28;45352;-63
2021/01/28 06:34:20;;;;;;;5.85;4.18;;;23.70;41.50;;;;;;5026358;28;45693;-62
2021/01/28 06:37:36;;;;;;;6.10;4.15;;;23.70;41.50;;;;;;5057799;28;46448;-63
2021/01/28 06:40:04;;;;;;;7.57;3.88;;;23.70;41.30;;;;;;5032116;28;45321;-64
2021/01/28 06:42:34;;;;;;;6.22;4.05;;;23.80;41.50;;;;;;5047257;28;45355;-63
2021/01/28 06:45:02;;;;;;;6.35;4.30;;;23.80;41.40;;;;;;5030986;28;45240;-63
2021/01/28 06:47:39;;;;;;;6.40;4.28;;;23.80;41.30;;;;;;5048176;28;46054;-63
2021/01/28 06:50:34;;;;;;;5.90;3.90;;;23.90;41.90;;;;;;5029575;28;45323;-63
2021/01/28 06:53:20;;;;;;;7.30;4.80;;;23.90;41.20;;;;;;5056538;28;45402;-62
2021/01/28 06:55:53;;;;;;;7.30;4.32;;;23.90;41.20;;;;;;5044625;28;45534;-62
2021/01/28 06:58:36;;;;;;;8.10;4.22;;;23.90;41.20;;;;;;5048656;28;45501;-64
2021/01/28 07:01:19;;;;;;;6.53;3.97;;;24.00;41.20;;;;;;5067545;28;45526;-68
2021/01/28 07:04:23;;;;;;;7.72;4.18;;;24.00;41.30;;;;;;5065519;28;46503;-67
2021/01/28 07:06:52;;;;;;;7.32;4.30;;;24.10;41.30;;;;;;5062447;28;45366;-67
2021/01/28 07:09:45;;;;;;;11.10;7.60;;;24.10;41.30;;;;;;5063869;28;45704;-74
2021/01/28 07:12:13;;;;;;;12.13;9.23;;;24.10;40.40;;;;;;5066583;28;45331;-74
2021/01/28 07:14:39;;;;;;;14.48;11.13;;;24.10;39.60;;;;;;5052124;28;45691;-74
2021/01/28 07:17:19;;;;;;;15.00;12.02;;;24.10;38.50;;;;;;5064087;28;45449;-71
2021/01/28 07:19:56;;;;;;;19.98;13.65;;;24.10;37.80;;;;;;5065538;28;45354;-77
2021/01/28 07:22:38;;;;;;;17.98;12.02;;;24.10;36.00;;;;;;5063077;28;45410;-65
2021/01/28 07:25:28;;;;;;;18.98;11.88;;;24.20;37.10;;;;;;5063681;28;45779;-63
2021/01/28 07:27:55;;;;;;;14.70;10.82;;;24.30;36.90;;;;;;5067515;28;45306;-64
2021/01/28 07:30:33;;;;;;;24.55;11.30;;;24.30;37.40;;;;;;5064713;28;45625;-66
2021/01/28 07:32:59;;;;;;;15.30;9.95;;;24.40;37.70;;;;;;5045978;28;45348;-61
2021/01/28 07:35:24;;;;;;;15.75;9.73;;;24.40;38.20;;;;;;5049760;28;45465;-64
2021/01/28 07:37:54;;;;;;;14.40;9.00;;;24.40;38.30;;;;;;5059016;28;45579;-68
2021/01/28 07:40:58;;;;;;;17.25;10.52;;;24.50;38.40;;;;;;5044143;28;46818;-61
2021/01/28 07:43:37;;;;;;;14.88;9.10;;;24.50;38.40;;;;;;5064195;28;46371;-65
2021/01/28 07:46:28;;;;;;;11.93;9.27;;;24.60;38.80;;;;;;5041465;28;45298;-63
2021/01/28 07:49:18;;;;;;;13.18;8.82;;;24.60;38.80;;;;;;5057261;28;45424;-65
2021/01/28 07:52:00;;;;;;;12.07;8.23;;;24.70;39.00;;;;;;5043972;28;46555;-70
2021/01/28 07:54:26;;;;;;;13.65;8.27;;;24.70;39.10;;;;;;5049850;28;45920;-70
2021/01/28 07:56:58;;;;;;;16.63;9.43;;;24.80;39.30;;;;;;5055165;28;45529;-67
2021/01/28 07:59:36;;;;;;;13.57;8.82;;;24.80;39.50;;;;;;5045092;28;45438;-65
2021/01/28 08:02:24;;;;;;;14.30;7.72;;;24.90;39.60;;;;;;5059794;28;46343;-70
2021/01/28 08:05:04;;;;;;;12.20;7.15;;;25.00;39.70;;;;;;5050208;28;45621;-70
2021/01/28 08:07:38;;;;;;;13.25;7.57;;;25.00;39.70;;;;;;5057655;28;45831;-65
2021/01/28 08:10:23;;;;;;;12.70;7.75;;;25.10;39.80;;;;;;5058124;28;45425;-67
2021/01/28 08:13:02;;;;;;;10.57;7.32;;;25.10;39.80;;;;;;5058241;28;46367;-66
2021/01/28 08:15:42;;;;;;;9.65;6.38;;;25.20;39.90;;;;;;5057632;28;45576;-68
2021/01/28 08:18:24;;;;;;;12.23;7.50;;;25.20;39.90;;;;;;5055737;28;45415;-68
2021/01/28 08:20:50;;;;;;;11.30;7.68;;;25.30;40.00;;;;;;5062325;28;45311;-62
2021/01/28 08:23:18;;;;;;;8.82;6.53;;;25.30;40.00;;;;;;5041379;28;46465;-63
2021/01/28 08:25:51;;;;;;;11.18;7.22;;;25.40;40.20;;;;;;5037201;28;45454;-63
2021/01/28 08:28:17;;;;;;;11.50;7.13;;;25.40;40.20;;;;;;5057859;28;45797;-67
2021/01/28 08:30:43;;;;;;;10.10;6.95;;;25.50;40.20;;;;;;5044318;28;45753;-69
2021/01/28 08:33:13;;;;;;;9.63;6.10;;;25.50;40.20;;;;;;5026312;28;46254;-61
2021/01/28 08:35:43;;;;;;;9.07;6.38;;;25.50;40.20;;;;;;5043611;28;45442;-63
2021/01/28 08:38:21;;;;;;;8.68;6.93;;;25.50;40.70;;;;;;5035750;28;45499;-64
2021/01/28 08:40:57;;;;;;;10.02;6.50;;;25.60;40.30;;;;;;5056873;28;45493;-64
2021/01/28 08:43:23;;;;;;;9.85;6.75;;;25.60;40.30;;;;;;5052924;28;45423;-64
2021/01/28 08:45:49;;;;;;;9.77;7.55;;;25.60;40.20;;;;;;5042798;28;45411;-63
2021/01/28 08:48:15;;;;;;;15.98;11.38;;;25.60;40.80;;;;;;5044272;28;45488;-61
2021/01/28 08:50:44;;;;;;;17.23;13.13;;;25.60;39.30;;;;;;5060882;28;45614;-60
2021/01/28 08:53:20;;;;;;;24.60;19.48;;;25.60;38.70;;;;;;5044429;28;45432;-61
2021/01/28 08:55:46;;;;;;;34.40;21.92;;;25.60;36.60;;;;;;5054188;28;45444;-65
2021/01/28 08:58:22;;;;;;;36.78;26.73;;;25.50;36.40;;;;;;5051570;28;45419;-64
2021/01/28 09:00:49;;;;;;;46.38;32.95;;;25.50;36.70;;;;;;5057079;28;45797;-64
2021/01/28 09:03:19;;;;;;;40.72;30.35;;;25.50;36.80;;;;;;5053226;28;45839;-64
2021/01/28 09:05:44;;;;;;;40.92;30.20;;;25.50;36.80;;;;;;5056134;28;45559;-65
2021/01/28 09:08:26;;;;;;;39.90;30.10;;;25.50;36.80;;;;;;5044518;28;45501;-65
2021/01/28 09:10:52;;;;;;;37.35;26.95;;;25.50;36.80;;;;;;5056169;28;45662;-65
2021/01/28 09:13:22;;;;;;;42.13;30.50;;;25.50;37.20;;;;;;5044202;28;45761;-64
2021/01/28 09:16:13;;;;;;;37.88;26.63;;;25.50;37.30;;;;;;5055205;28;45448;-64
2021/01/28 09:18:43;;;;;;;38.08;26.70;;;25.50;37.30;;;;;;5053956;28;45445;-71
2021/01/28 09:21:11;;;;;;;34.70;25.13;;;25.50;37.70;;;;;;5064340;28;45523;-68
2021/01/28 09:23:36;;;;;;;36.00;24.50;;;25.50;37.80;;;;;;5058515;28;45449;-68
2021/01/28 09:26:20;;;;;;;31.15;23.35;;;25.60;38.00;;;;;;5042271;28;45470;-67
2021/01/28 09:28:46;;;;;;;33.90;23.95;;;25.60;38.00;;;;;;5058946;28;45349;-64
2021/01/28 09:31:28;;;;;;;33.13;24.85;;;25.70;38.20;;;;;;5047984;28;45629;-64
2021/01/28 09:33:54;;;;;;;33.10;23.27;;;25.70;38.20;;;;;;5053988;28;45490;-63
2021/01/28 09:36:22;;;;;;;31.58;22.77;;;25.70;38.30;;;;;;5047653;28;45315;-64
2021/01/28 09:39:21;;;;;;;29.27;22.48;;;25.70;38.40;;;;;;5059954;28;45807;-64
2021/01/28 09:41:50;;;;;;;29.10;21.08;;;25.70;38.50;;;;;;5046527;28;45388;-62
2021/01/28 09:44:36;;;;;;;28.52;21.40;;;25.80;38.70;;;;;;5055080;28;46809;-62
2021/01/28 09:47:17;;;;;;;30.90;20.60;;;25.80;38.70;;;;;;5054524;28;45520;-62
2021/01/28 09:49:46;;;;;;;27.67;20.13;;;25.80;38.80;;;;;;5055076;28;45462;-64
2021/01/28 09:52:21;;;;;;;29.63;21.27;;;25.80;38.80;;;;;;5044091;28;46632;-60
2021/01/28 09:55:07;;;;;;;24.15;18.27;;;25.80;38.80;;;;;;5062070;28;45378;-61
2021/01/28 09:57:33;;;;;;;24.40;18.58;;;25.80;38.80;;;;;;5056485;28;45476;-63
2021/01/28 09:59:59;;;;;;;19.58;15.93;;;25.80;38.90;;;;;;5045124;28;45549;-66
2021/01/28 10:02:40;;;;;;;17.80;14.13;;;25.70;38.60;;;;;;5044762;28;45458;-67
2021/01/28 10:05:07;;;;;;;20.00;14.05;;;25.50;39.10;;;;;;5052329;28;46238;-66
2021/01/28 10:07:32;;;;;;;21.27;13.65;;;25.30;38.80;;;;;;5043501;28;45568;-67
2021/01/28 10:09:58;;;;;;;20.55;13.55;;;25.30;38.90;;;;;;5059976;28;45562;-65
2021/01/28 10:12:25;;;;;;;18.33;13.10;;;25.40;39.20;;;;;;5042662;28;45691;-70
2021/01/28 10:14:51;;;;;;;15.05;11.43;;;25.50;39.30;;;;;;5056238;28;45617;-68
2021/01/28 10:17:16;;;;;;;16.95;13.45;;;25.50;39.40;;;;;;5041765;28;45479;-70
2021/01/28 10:19:43;;;;;;;18.33;12.82;;;25.50;39.20;;;;;;5043344;28;45426;-71
2021/01/28 10:22:13;;;;;;;15.23;11.93;;;25.50;39.40;;;;;;5055452;28;46045;-68
2021/01/28 10:24:39;;;;;;;16.20;11.30;;;25.60;39.50;;;;;;5052099;28;46378;-66
2021/01/28 10:27:05;;;;;;;18.20;13.57;;;25.60;39.40;;;;;;5039389;28;45516;-71
2021/01/28 10:29:31;;;;;;;15.85;11.43;;;25.70;39.40;;;;;;5041518;28;45756;-73
2021/01/28 10:31:56;;;;;;;16.20;10.93;;;25.60;39.30;;;;;;5045485;28;45460;-70
2021/01/28 10:34:22;;;;;;;17.13;11.85;;;25.70;39.30;;;;;;5055627;28;46073;-70
2021/01/28 10:36:48;;;;;;;16.52;11.52;;;25.60;39.20;;;;;;5043275;28;45849;-68
2021/01/28 10:39:13;;;;;;;15.20;11.13;;;25.60;39.30;;;;;;5055405;28;45499;-64
2021/01/28 10:41:39;;;;;;;14.07;10.75;;;25.50;39.50;;;;;;5056166;28;45467;-78
2021/01/28 10:44:05;;;;;;;14.75;10.95;;;25.40;39.90;;;;;;5050638;28;45424;-65
2021/01/28 10:46:31;;;;;;;15.80;11.10;;;25.30;40.60;;;;;;5044804;28;45351;-63
2021/01/28 10:48:57;;;;;;;16.73;11.15;;;25.20;40.70;;;;;;5060080;28;45561;-62
2021/01/28 10:51:22;;;;;;;18.55;11.52;;;25.10;40.90;;;;;;5059143;28;45349;-62
2021/01/28 10:53:48;;;;;;;14.80;10.50;;;25.00;41.30;;;;;;5061081;28;45387;-62
2021/01/28 10:56:14;;;;;;;13.93;9.77;;;25.00;41.50;;;;;;5043002;28;45512;-61
2021/01/28 10:58:39;;;;;;;16.85;11.15;;;24.90;41.30;;;;;;5055710;28;45457;-61
2021/01/28 11:01:05;;;;;;;14.57;10.20;;;24.90;40.80;;;;;;5052977;28;45504;-61
2021/01/28 11:03:31;;;;;;;14.35;10.63;;;24.90;41.10;;;;;;5048918;28;46144;-62
2021/01/28 11:05:58;;;;;;;18.65;9.95;;;24.90;41.40;;;;;;5056652;28;45494;-64
2021/01/28 11:08:24;;;;;;;13.50;10.05;;;25.00;41.30;;;;;;5041872;28;45403;-64
2021/01/28 11:10:49;;;;;;;11.40;9.18;;;25.20;41.20;;;;;;5044497;28;45469;-68
2021/01/28 11:13:15;;;;;;;13.02;9.65;;;25.30;41.00;;;;;;5046128;28;46129;-67
2021/01/28 11:15:41;;;;;;;11.38;8.20;;;25.40;40.80;;;;;;5039299;28;45514;-65
2021/01/28 11:18:08;;;;;;;13.38;9.18;;;25.50;40.90;;;;;;5042227;28;45510;-67
2021/01/28 11:20:34;;;;;;;12.70;9.50;;;25.50;40.90;;;;;;5044653;28;45428;-65
2021/01/28 11:23:01;;;;;;;15.82;9.75;;;25.40;40.80;;;;;;5046367;28;46731;-65
2021/01/28 11:25:27;;;;;;;12.20;9.38;;;25.30;41.20;;;;;;5054611;28;45580;-67
2021/01/28 11:27:53;;;;;;;14.02;9.02;;;25.20;41.50;;;;;;5045630;28;45437;-68
2021/01/28 11:30:20;;;;;;;16.77;11.32;;;25.00;41.00;;;;;;5043568;28;45912;-68
2021/01/28 11:32:46;;;;;;;15.77;10.55;;;24.60;39.20;;;;;;5045793;28;46130;-66
2021/01/28 11:35:11;;;;;;;14.13;9.75;;;24.50;39.30;;;;;;5041086;28;45506;-71
2021/01/28 11:37:37;;;;;;;13.98;9.85;;;24.50;39.80;;;;;;5056603;28;45637;-68
2021/01/28 11:40:05;;;;;;;15.15;8.68;;;24.50;40.90;;;;;;5029690;28;45583;-70
2021/01/28 11:42:30;;;;;;;13.02;8.82;;;24.50;41.50;;;;;;5058316;28;47397;-67
2021/01/28 11:44:56;;;;;;;13.82;8.27;;;24.50;41.70;;;;;;5042328;28;45496;-69
2021/01/28 11:47:24;;;;;;;13.02;8.63;;;24.50;41.50;;;;;;5044263;28;45502;-69
2021/01/28 11:49:51;;;;;;;10.50;7.32;;;24.50;41.70;;;;;;5041541;28;45501;-66
2021/01/28 11:52:17;;;;;;;11.43;7.50;;;24.50;42.00;;;;;;5048973;28;46095;-67
2021/01/28 11:54:42;;;;;;;10.35;7.20;;;24.70;41.70;;;;;;5039849;28;45638;-66
2021/01/28 11:57:08;;;;;;;10.48;7.30;;;24.80;41.20;;;;;;5046400;28;45885;-72
2021/01/28 11:59:33;;;;;;;12.73;8.52;;;24.90;41.10;;;;;;5053738;28;45380;-67
2021/01/28 12:01:59;;;;;;;13.23;10.25;;;24.90;39.90;;;;;;5043450;28;46287;-68
2021/01/28 12:04:25;;;;;;;13.90;10.50;;;24.70;38.50;;;;;;5038320;28;45288;-71
2021/01/28 12:06:50;;;;;;;12.20;8.77;;;24.60;37.10;;;;;;5050638;28;46508;-65
2021/01/28 12:09:16;;;;;;;11.80;7.90;;;24.60;38.10;;;;;;5046268;28;45578;-66
2021/01/28 12:11:42;;;;;;;13.00;7.82;;;24.80;38.50;;;;;;5046978;28;45437;-64
2021/01/28 12:14:08;;;;;;;10.50;7.63;;;24.90;38.80;;;;;;5036141;28;45851;-69
2021/01/28 12:16:34;;;;;;;11.00;8.07;;;24.90;38.90;;;;;;5041411;28;45731;-62
2021/01/28 12:18:59;;;;;;;12.10;6.90;;;25.00;38.90;;;;;;5043727;28;45528;-61
2021/01/28 12:21:26;;;;;;;12.40;6.28;;;25.00;39.00;;;;;;5056309;28;46314;-61
2021/01/28 12:23:52;;;;;;;9.75;6.18;;;25.20;39.10;;;;;;5055718;28;45758;-68
2021/01/28 12:26:20;;;;;;;11.75;8.35;;;25.20;39.10;;;;;;5045152;28;45444;-61
2021/01/28 12:28:46;;;;;;;12.88;8.48;;;25.00;37.10;;;;;;5058760;28;45614;-61
2021/01/28 12:31:13;;;;;;;13.50;9.55;;;24.80;34.20;;;;;;5057736;28;45531;-60
2021/01/28 12:33:39;;;;;;;10.98;7.80;;;24.60;32.50;;;;;;5044130;28;45390;-61
2021/01/28 12:36:09;;;;;;;9.35;7.03;;;24.60;33.40;;;;;;5038134;28;45527;-62
2021/01/28 12:38:35;;;;;;;12.48;6.90;;;24.70;35.10;;;;;;5057418;28;45658;-63
2021/01/28 12:41:01;;;;;;;12.30;6.93;;;24.90;35.50;;;;;;5041082;28;46223;-58
2021/01/28 12:43:27;;;;;;;11.07;6.68;;;25.10;36.10;;;;;;5043951;28;45402;-61
2021/01/28 12:45:53;;;;;;;12.60;6.25;;;25.10;36.90;;;;;;5041960;28;45495;-62
2021/01/28 12:48:19;;;;;;;10.60;7.10;;;25.00;37.40;;;;;;5045789;28;45810;-60
2021/01/28 12:50:44;;;;;;;11.77;6.43;;;24.80;37.20;;;;;;5047004;28;46336;-58
2021/01/28 12:53:10;;;;;;;13.25;7.80;;;24.60;36.00;;;;;;5044281;28;45671;-60
2021/01/28 12:55:36;;;;;;;12.68;7.35;;;24.50;36.00;;;;;;5046500;28;45572;-60